createdAt,value
2019-02-16T00:00:13.957Z,24
2019-02-16T00:01:03.972Z,24
2019-02-16T00:01:53.214Z,23.9
2019-02-16T00:02:43.882Z,24
2019-02-16T00:03:33.875Z,24
2019-02-16T00:04:23.099Z,24
2019-02-16T00:05:13.779Z,24
2019-02-16T00:06:03.841Z,24
2019-02-16T00:06:53.613Z,23.9
2019-02-16T00:07:43.954Z,24
2019-02-16T00:08:34.221Z,24
2019-02-16T00:09:23.783Z,24
2019-02-16T00:10:13.844Z,24
2019-02-16T00:11:02.879Z,24
2019-02-16T00:11:54.244Z,23.9
2019-02-16T00:12:44.029Z,24
2019-02-16T00:13:33.066Z,23.9
2019-02-16T00:14:23.949Z,24
2019-02-16T00:15:14.011Z,23.9
2019-02-16T00:16:03.788Z,24
2019-02-16T00:16:54.034Z,24
2019-02-16T00:17:44.686Z,23.9
2019-02-16T00:18:33.668Z,23.9
2019-02-16T00:19:24.278Z,23.9
2019-02-16T00:20:14.540Z,23.9
2019-02-16T00:21:09.690Z,23.9
2019-02-16T00:21:54.991Z,23.9
2019-02-16T00:22:45.196Z,23.9
2019-02-16T00:23:34.955Z,23.9
2019-02-16T00:24:25.658Z,23.9
2019-02-16T00:25:15.915Z,23.9
2019-02-16T00:26:05.133Z,23.9
2019-02-16T00:26:54.700Z,23.9
2019-02-16T00:27:45.328Z,23.9
2019-02-16T00:28:35.652Z,23.9
2019-02-16T00:29:26.205Z,23.9
2019-02-16T00:30:15.709Z,23.9
2019-02-16T00:31:05.783Z,23.9
2019-02-16T00:31:56.182Z,23.9
2019-02-16T00:32:45.064Z,23.9
2019-02-16T00:33:35.395Z,23.9
2019-02-16T00:34:26.380Z,23.9
2019-02-16T00:35:16.384Z,23.9
2019-02-16T00:36:06.440Z,23.9
2019-02-16T00:36:56.242Z,23.9
2019-02-16T00:37:45.943Z,23.9
2019-02-16T00:38:35.492Z,23.9
2019-02-16T00:39:26.375Z,23.9
2019-02-16T00:40:16.669Z,23.9
2019-02-16T00:41:06.725Z,23.9
2019-02-16T00:41:55.948Z,23.9
2019-02-16T00:42:47.139Z,23.9
2019-02-16T00:43:36.406Z,23.9
2019-02-16T00:44:26.163Z,23.9
2019-02-16T00:45:17.046Z,23.9
2019-02-16T00:46:06.792Z,23.9
2019-02-16T00:46:56.038Z,23.9
2019-02-16T00:47:47.213Z,23.9
2019-02-16T00:48:37.247Z,23.9
2019-02-16T00:49:26.802Z,23.9
2019-02-16T00:50:17.634Z,23.9
2019-02-16T00:51:16.794Z,23.9
2019-02-16T00:51:56.969Z,23.9
2019-02-16T00:52:46.131Z,23.9
2019-02-16T00:53:37.079Z,23.9
2019-02-16T00:54:27.356Z,23.9
2019-02-16T00:55:17.424Z,23.9
2019-02-16T00:56:07.191Z,23.9
2019-02-16T00:56:57.627Z,23.9
2019-02-16T00:57:47.569Z,23.9
2019-02-16T00:58:37.656Z,23.9
2019-02-16T00:59:29.971Z,23.9
2019-02-16T01:00:18.344Z,23.9
2019-02-16T01:01:07.603Z,23.9
2019-02-16T01:01:57.876Z,23.9
2019-02-16T01:02:48.033Z,23.9
2019-02-16T01:03:37.155Z,23.9
2019-02-16T01:04:27.598Z,23.9
2019-02-16T01:05:18.118Z,23.9
2019-02-16T01:06:07.923Z,23.9
2019-02-16T01:06:58.210Z,23.9
2019-02-16T01:07:48.581Z,23.9
2019-02-16T01:08:38.338Z,23.8
2019-02-16T01:09:28.040Z,23.9
2019-02-16T01:10:18.716Z,23.8
2019-02-16T01:11:08.215Z,23.8
2019-02-16T01:11:57.783Z,23.9
2019-02-16T01:12:47.881Z,23.8
2019-02-16T01:13:38.185Z,23.9
2019-02-16T01:14:28.562Z,23.9
2019-02-16T01:15:17.552Z,23.8
2019-02-16T01:16:08.698Z,23.8
2019-02-16T01:16:58.990Z,23.8
2019-02-16T01:17:48.285Z,23.8
2019-02-16T01:18:39.094Z,23.8
2019-02-16T01:19:28.790Z,23.8
2019-02-16T01:20:19.132Z,23.8
2019-02-16T01:21:09.523Z,23.8
2019-02-16T01:21:58.967Z,23.8
2019-02-16T01:22:49.742Z,23.8
2019-02-16T01:23:39.134Z,23.8
2019-02-16T01:24:28.602Z,23.8
2019-02-16T01:25:19.734Z,23.8
2019-02-16T01:26:09.242Z,23.8
2019-02-16T01:26:59.857Z,23.8
2019-02-16T01:27:49.522Z,23.8
2019-02-16T01:28:39.726Z,23.8
2019-02-16T01:29:29.745Z,23.8
2019-02-16T01:30:18.984Z,23.8
2019-02-16T01:31:10.155Z,23.8
2019-02-16T01:31:59.729Z,23.8
2019-02-16T01:32:50.241Z,23.8
2019-02-16T01:33:40.589Z,23.8
2019-02-16T01:34:29.585Z,23.8
2019-02-16T01:35:19.861Z,23.8
2019-02-16T01:36:10.271Z,23.8
2019-02-16T01:37:00.814Z,23.8
2019-02-16T01:37:50.321Z,23.8
2019-02-16T01:38:39.907Z,23.8
2019-02-16T01:39:30.527Z,23.8
2019-02-16T01:40:20.030Z,23.8
2019-02-16T01:41:10.078Z,23.8
2019-02-16T01:42:00.411Z,23.8
2019-02-16T01:42:50.103Z,23.8
2019-02-16T01:43:40.748Z,23.8
2019-02-16T01:44:30.822Z,23.8
2019-02-16T01:45:20.013Z,23.8
2019-02-16T01:46:10.910Z,23.8
2019-02-16T01:47:00.145Z,23.8
2019-02-16T01:47:51.828Z,23.8
2019-02-16T01:48:39.955Z,23.8
2019-02-16T01:49:31.698Z,23.8
2019-02-16T01:50:21.170Z,23.8
2019-02-16T01:51:11.248Z,23.8
2019-02-16T01:52:01.283Z,23.8
2019-02-16T01:52:51.389Z,23.8
2019-02-16T01:53:41.688Z,23.8
2019-02-16T01:54:31.757Z,23.8
2019-02-16T01:55:21.298Z,23.8
2019-02-16T01:56:12.145Z,23.8
2019-02-16T01:57:02.183Z,23.8
2019-02-16T01:57:51.497Z,23.8
2019-02-16T01:58:41.767Z,23.8
2019-02-16T01:59:31.280Z,23.8
2019-02-16T02:00:22.490Z,23.8
2019-02-16T02:01:11.927Z,23.8
2019-02-16T02:02:01.717Z,23.8
2019-02-16T02:02:51.754Z,23.8
2019-02-16T02:03:42.387Z,23.8
2019-02-16T02:04:32.157Z,23.9
2019-02-16T02:05:22.227Z,23.9
2019-02-16T02:06:11.429Z,23.9
2019-02-16T02:07:02.661Z,23.9
2019-02-16T02:07:52.577Z,23.9
2019-02-16T02:08:42.224Z,24
2019-02-16T02:09:32.222Z,24.1
2019-02-16T02:10:22.831Z,24.1
2019-02-16T02:11:12.961Z,24.2
2019-02-16T02:12:02.666Z,24.3
2019-02-16T02:12:53.123Z,24.3
2019-02-16T02:13:42.576Z,24.3
2019-02-16T02:14:33.201Z,24.4
2019-02-16T02:15:22.624Z,24.5
2019-02-16T02:16:12.689Z,24.5
2019-02-16T02:17:02.243Z,24.6
2019-02-16T02:17:53.619Z,24.7
2019-02-16T02:18:43.148Z,24.8
2019-02-16T02:19:33.203Z,24.9
2019-02-16T02:20:23.290Z,24.9
2019-02-16T02:21:13.155Z,25
2019-02-16T02:22:02.283Z,25.1
2019-02-16T02:22:52.948Z,25.3
2019-02-16T02:23:43.751Z,25.3
2019-02-16T02:24:32.811Z,25.4
2019-02-16T02:25:22.848Z,25.6
2019-02-16T02:26:12.890Z,25.6
2019-02-16T02:27:03.251Z,25.8
2019-02-16T02:27:53.555Z,25.8
2019-02-16T02:28:43.057Z,25.9
2019-02-16T02:29:33.149Z,26.1
2019-02-16T02:30:24.661Z,26.2
2019-02-16T02:31:13.267Z,26.3
2019-02-16T02:32:04.196Z,26.4
2019-02-16T02:32:54.395Z,26.5
2019-02-16T02:33:44.503Z,26.6
2019-02-16T02:34:34.230Z,26.8
2019-02-16T02:35:24.584Z,26.8
2019-02-16T02:36:14.685Z,26.9
2019-02-16T02:37:04.203Z,27.1
2019-02-16T02:37:54.441Z,27.2
2019-02-16T02:38:44.587Z,27.3
2019-02-16T02:39:34.867Z,27.4
2019-02-16T02:40:24.609Z,27.5
2019-02-16T02:41:15.270Z,27.6
2019-02-16T02:42:05.351Z,27.8
2019-02-16T02:42:55.404Z,27.9
2019-02-16T02:43:45.139Z,27.9
2019-02-16T02:44:34.095Z,28.1
2019-02-16T02:45:24.978Z,28.2
2019-02-16T02:46:15.347Z,28.3
2019-02-16T02:47:05.394Z,28.4
2019-02-16T02:47:54.929Z,28.6
2019-02-16T02:48:44.156Z,28.6
2019-02-16T02:49:35.021Z,28.8
2019-02-16T02:50:25.170Z,28.9
2019-02-16T02:51:15.093Z,28.9
2019-02-16T02:52:05.422Z,29.1
2019-02-16T02:52:58.607Z,29.2
2019-02-16T02:53:45.576Z,29.3
2019-02-16T02:54:35.614Z,29.4
2019-02-16T02:55:25.976Z,29.5
2019-02-16T02:56:15.819Z,29.7
2019-02-16T02:57:05.591Z,29.8
2019-02-16T02:57:56.126Z,29.9
2019-02-16T02:58:45.902Z,30
2019-02-16T02:59:36.253Z,30.1
2019-02-16T03:00:25.755Z,30.3
2019-02-16T03:01:16.246Z,30.3
2019-02-16T03:02:05.925Z,30.4
2019-02-16T03:02:56.486Z,30.6
2019-02-16T03:03:46.216Z,30.7
2019-02-16T03:04:36.301Z,30.8
2019-02-16T03:08:09.223Z,31.2
2019-02-16T03:08:58.983Z,31.4
2019-02-16T03:09:49.441Z,31.5
2019-02-16T03:10:39.392Z,31.6
2019-02-16T03:11:29.146Z,31.8
2019-02-16T03:12:18.962Z,31.9
2019-02-16T03:13:09.543Z,32
2019-02-16T03:13:59.608Z,32.1
2019-02-16T03:14:50.718Z,32.2
2019-02-16T03:15:39.732Z,32.3
2019-02-16T03:16:31.368Z,32.4
2019-02-16T03:17:20.168Z,32.6
2019-02-16T03:18:09.670Z,32.7
2019-02-16T03:18:59.953Z,32.8
2019-02-16T03:19:50.287Z,32.9
2019-02-16T03:20:39.557Z,33.1
2019-02-16T03:21:29.608Z,33.1
2019-02-16T03:22:19.888Z,33.3
2019-02-16T03:23:09.452Z,33.4
2019-02-16T03:24:00.661Z,33.5
2019-02-16T03:24:51.245Z,33.6
2019-02-16T03:25:40.386Z,33.8
2019-02-16T03:26:30.013Z,33.9
2019-02-16T03:27:20.577Z,33.9
2019-02-16T03:28:09.763Z,34.1
2019-02-16T03:29:00.493Z,34.2
2019-02-16T03:29:51.243Z,34.3
2019-02-16T03:30:40.997Z,34.3
2019-02-16T03:31:30.825Z,34.4
2019-02-16T03:32:21.067Z,34.5
2019-02-16T03:33:11.256Z,34.6
2019-02-16T03:34:00.823Z,34.6
2019-02-16T03:34:51.497Z,34.7
2019-02-16T03:35:42.478Z,34.7
2019-02-16T03:36:31.439Z,34.8
2019-02-16T03:37:20.660Z,34.8
2019-02-16T03:38:11.361Z,34.8
2019-02-16T03:39:00.549Z,34.8
2019-02-16T03:39:51.715Z,34.8
2019-02-16T03:40:41.753Z,34.9
2019-02-16T03:41:30.788Z,34.9
2019-02-16T03:42:21.260Z,34.9
2019-02-16T03:43:11.048Z,34.9
2019-02-16T03:44:02.019Z,34.9
2019-02-16T03:44:52.235Z,34.9
2019-02-16T03:45:41.542Z,34.9
2019-02-16T03:46:31.336Z,34.9
2019-02-16T03:47:21.894Z,34.9
2019-02-16T03:48:11.700Z,34.9
2019-02-16T03:49:01.504Z,35
2019-02-16T03:49:52.035Z,34.9
2019-02-16T03:50:41.402Z,34.9
2019-02-16T03:51:30.832Z,34.9
2019-02-16T03:52:21.227Z,35
2019-02-16T03:53:10.966Z,35
2019-02-16T03:54:01.845Z,35
2019-02-16T03:54:52.467Z,35
2019-02-16T03:55:41.733Z,35
2019-02-16T03:56:32.295Z,35
2019-02-16T03:57:21.769Z,35
2019-02-16T03:58:12.148Z,35
2019-02-16T03:59:01.934Z,35
2019-02-16T03:59:52.307Z,35
2019-02-16T04:00:42.833Z,35
2019-02-16T04:01:33.187Z,35
2019-02-16T04:02:22.370Z,35
2019-02-16T04:03:13.016Z,35.1
2019-02-16T04:04:03.103Z,35.1
2019-02-16T04:04:52.919Z,35
2019-02-16T04:05:43.432Z,35
2019-02-16T04:06:32.697Z,35
2019-02-16T04:07:22.747Z,35.1
2019-02-16T04:08:12.322Z,35.1
2019-02-16T04:09:02.957Z,35.1
2019-02-16T04:09:51.988Z,35.1
2019-02-16T04:10:42.787Z,35.1
2019-02-16T04:11:31.992Z,35.1
2019-02-16T04:12:23.184Z,35.1
2019-02-16T04:13:13.659Z,35.1
2019-02-16T04:14:03.489Z,35.1
2019-02-16T04:14:53.353Z,35.1
2019-02-16T04:15:44.176Z,35.1
2019-02-16T04:16:33.691Z,35.1
2019-02-16T04:17:23.434Z,35.1
2019-02-16T04:18:12.450Z,35.1
2019-02-16T04:19:02.282Z,35.1
2019-02-16T04:19:53.363Z,35.1
2019-02-16T04:20:43.893Z,35.1
2019-02-16T04:21:34.236Z,35.1
2019-02-16T04:22:30.226Z,35.1
2019-02-16T04:23:14.641Z,35.1
2019-02-16T04:24:03.703Z,35.1
2019-02-16T04:24:53.959Z,35.1
2019-02-16T04:25:44.699Z,35.1
2019-02-16T04:26:34.563Z,35.1
2019-02-16T04:27:24.356Z,35.1
2019-02-16T04:28:13.939Z,35.1
2019-02-16T04:29:05.046Z,35
2019-02-16T04:29:54.218Z,35
2019-02-16T04:30:45.203Z,35.1
2019-02-16T04:31:34.668Z,35.1
2019-02-16T04:32:24.508Z,35.1
2019-02-16T04:33:15.033Z,35
2019-02-16T04:34:05.091Z,35.1
2019-02-16T04:34:55.448Z,35.1
2019-02-16T04:35:45.575Z,35.1
2019-02-16T04:36:34.962Z,35.1
2019-02-16T04:37:25.816Z,35
2019-02-16T04:38:14.826Z,35.1
2019-02-16T04:39:05.444Z,35.1
2019-02-16T04:39:55.485Z,35
2019-02-16T04:40:45.307Z,35
2019-02-16T04:41:35.693Z,35
2019-02-16T04:42:25.871Z,35
2019-02-16T04:43:15.388Z,35.1
2019-02-16T04:44:06.024Z,35
2019-02-16T04:44:55.539Z,35
2019-02-16T04:45:46.165Z,35
2019-02-16T04:46:36.208Z,35
2019-02-16T04:47:25.426Z,35
2019-02-16T04:48:16.319Z,35
2019-02-16T04:49:05.290Z,35
2019-02-16T04:49:55.869Z,35
2019-02-16T04:50:46.756Z,35
2019-02-16T04:51:36.336Z,35
2019-02-16T04:52:36.779Z,35
2019-02-16T04:53:16.909Z,35
2019-02-16T04:54:06.454Z,35
2019-02-16T04:54:55.920Z,35
2019-02-16T04:55:46.576Z,35
2019-02-16T04:56:36.587Z,35
2019-02-16T04:57:26.673Z,35
2019-02-16T04:58:16.744Z,35
2019-02-16T04:59:07.207Z,35
2019-02-16T04:59:56.917Z,35
2019-02-16T05:00:47.247Z,35
2019-02-16T05:01:36.159Z,35
2019-02-16T05:02:27.283Z,35
2019-02-16T05:03:16.793Z,35
2019-02-16T05:04:06.556Z,35
2019-02-16T05:04:57.169Z,34.9
2019-02-16T05:05:47.255Z,35
2019-02-16T05:06:37.609Z,34.9
2019-02-16T05:07:27.431Z,34.9
2019-02-16T05:08:17.378Z,34.9
2019-02-16T05:09:07.209Z,35
2019-02-16T05:09:57.913Z,34.9
2019-02-16T05:10:48.066Z,34.9
2019-02-16T05:11:38.246Z,34.9
2019-02-16T05:12:27.373Z,34.9
2019-02-16T05:13:18.310Z,34.9
2019-02-16T05:14:07.790Z,34.9
2019-02-16T05:14:57.611Z,34.9
2019-02-16T05:15:47.833Z,34.9
2019-02-16T05:16:37.449Z,34.9
2019-02-16T05:17:28.047Z,34.9
2019-02-16T05:18:17.860Z,34.9
2019-02-16T05:19:08.453Z,34.9
2019-02-16T05:19:57.903Z,34.9
2019-02-16T05:20:48.262Z,34.9
2019-02-16T05:21:38.092Z,34.9
2019-02-16T05:22:28.650Z,34.9
2019-02-16T05:23:18.399Z,34.9
2019-02-16T05:24:09.026Z,34.9
2019-02-16T05:24:57.995Z,34.9
2019-02-16T05:25:50.902Z,34.9
2019-02-16T05:26:38.640Z,34.9
2019-02-16T05:27:28.212Z,34.9
2019-02-16T05:28:18.225Z,34.9
2019-02-16T05:29:08.022Z,34.9
2019-02-16T05:29:58.904Z,34.9
2019-02-16T05:30:49.017Z,34.9
2019-02-16T05:31:38.749Z,34.9
2019-02-16T05:32:29.030Z,34.9
2019-02-16T05:33:18.934Z,34.9
2019-02-16T05:34:08.434Z,34.9
2019-02-16T05:34:59.219Z,34.9
2019-02-16T05:35:49.099Z,34.9
2019-02-16T05:36:39.591Z,34.9
2019-02-16T05:37:31.544Z,34.8
2019-02-16T05:38:19.189Z,34.8
2019-02-16T05:39:09.506Z,34.8
2019-02-16T05:39:59.119Z,34.9
2019-02-16T05:40:49.665Z,34.8
2019-02-16T05:41:39.455Z,34.9
2019-02-16T05:42:29.721Z,34.9
2019-02-16T05:43:19.876Z,34.9
2019-02-16T05:44:09.541Z,34.9
2019-02-16T05:44:59.097Z,34.9
2019-02-16T05:45:49.826Z,34.9
2019-02-16T05:46:39.729Z,34.9
2019-02-16T05:47:30.645Z,34.9
2019-02-16T05:48:20.487Z,34.9
2019-02-16T05:49:10.158Z,34.9
2019-02-16T05:49:59.974Z,34.9
2019-02-16T05:50:50.879Z,34.9
2019-02-16T05:51:40.394Z,34.9
2019-02-16T05:52:30.443Z,34.9
2019-02-16T05:53:22.493Z,34.9
2019-02-16T05:54:10.267Z,34.9
2019-02-16T05:55:00.808Z,34.9
2019-02-16T05:55:49.943Z,34.9
2019-02-16T05:56:40.935Z,34.9
2019-02-16T05:57:29.985Z,34.9
2019-02-16T05:58:20.798Z,34.9
2019-02-16T05:59:12.836Z,34.9
2019-02-16T06:00:00.858Z,34.9
2019-02-16T06:00:50.985Z,34.9
2019-02-16T06:01:40.488Z,34.9
2019-02-16T06:02:31.074Z,34.9
2019-02-16T06:03:20.897Z,34.9
2019-02-16T06:04:10.907Z,34.9
2019-02-16T06:06:08.730Z,34.9
2019-02-16T06:06:58.825Z,34.9
2019-02-16T06:07:49.230Z,34.9
2019-02-16T06:08:39.045Z,34.9
2019-02-16T06:09:29.526Z,34.9
2019-02-16T06:10:19.631Z,34.9
2019-02-16T06:11:11.673Z,34.9
2019-02-16T06:11:58.717Z,34.9
2019-02-16T06:12:49.081Z,34.9
2019-02-16T06:13:39.096Z,34.9
2019-02-16T06:14:29.438Z,34.9
2019-02-16T06:15:19.368Z,34.9
2019-02-16T06:16:09.677Z,34.9
2019-02-16T06:16:58.710Z,34.9
2019-02-16T06:17:49.766Z,34.9
2019-02-16T06:18:39.125Z,34.9
2019-02-16T06:19:30.166Z,34.8
2019-02-16T06:20:19.407Z,34.9
2019-02-16T06:21:10.692Z,34.9
2019-02-16T06:21:59.505Z,34.9
2019-02-16T06:22:49.813Z,34.9
2019-02-16T06:23:40.219Z,34.9
2019-02-16T06:24:30.602Z,34.8
2019-02-16T06:25:20.523Z,34.8
2019-02-16T06:26:10.188Z,34.8
2019-02-16T06:26:59.862Z,34.8
2019-02-16T06:27:50.667Z,34.8
2019-02-16T06:28:41.728Z,34.9
2019-02-16T06:29:30.322Z,34.8
2019-02-16T06:30:20.405Z,34.8
2019-02-16T06:31:11.007Z,34.8
2019-02-16T06:32:01.309Z,34.8
2019-02-16T06:32:51.428Z,34.8
2019-02-16T06:33:41.017Z,34.8
2019-02-16T06:34:32.917Z,34.8
2019-02-16T06:35:20.734Z,34.8
2019-02-16T06:36:09.976Z,34.8
2019-02-16T06:37:01.407Z,34.8
2019-02-16T06:37:50.611Z,34.8
2019-02-16T06:38:41.519Z,34.8
2019-02-16T06:39:32.004Z,34.8
2019-02-16T06:40:21.108Z,34.8
2019-02-16T06:41:11.223Z,34.8
2019-02-16T06:42:01.269Z,34.8
2019-02-16T06:42:51.839Z,34.8
2019-02-16T06:43:41.401Z,34.8
2019-02-16T06:44:31.654Z,34.8
2019-02-16T06:45:21.128Z,34.8
2019-02-16T06:46:11.749Z,34.8
2019-02-16T06:47:01.799Z,34.8
2019-02-16T06:47:51.581Z,34.8
2019-02-16T06:48:42.506Z,34.8
2019-02-16T06:49:31.273Z,34.8
2019-02-16T06:50:21.743Z,34.8
2019-02-16T06:51:12.722Z,34.8
2019-02-16T06:52:01.906Z,34.8
2019-02-16T06:52:52.478Z,34.8
2019-02-16T06:53:42.260Z,34.8
2019-02-16T06:54:32.590Z,34.8
2019-02-16T06:55:22.423Z,34.7
2019-02-16T06:56:12.720Z,34.8
2019-02-16T06:57:03.032Z,34.7
2019-02-16T06:57:52.275Z,34.8
2019-02-16T06:58:42.928Z,34.7
2019-02-16T06:59:33.221Z,34.7
2019-02-16T07:00:23.128Z,34.7
2019-02-16T07:01:12.520Z,34.7
2019-02-16T07:02:03.375Z,34.7
2019-02-16T07:02:52.905Z,34.7
2019-02-16T07:03:43.015Z,34.7
2019-02-16T07:06:09.213Z,19.9
2019-02-16T07:06:58.472Z,35.7
2019-02-16T07:07:49.068Z,44.8
2019-02-16T07:08:38.579Z,47.8
2019-02-16T07:09:29.742Z,48.1
2019-02-16T07:10:18.985Z,47.9
2019-02-16T07:11:08.837Z,47.6
2019-02-16T07:11:59.375Z,47.1
2019-02-16T07:12:49.394Z,46.6
2019-02-16T07:13:38.927Z,46.2
2019-02-16T07:14:29.349Z,45.7
2019-02-16T07:15:19.629Z,45.3
2019-02-16T07:16:09.659Z,44.9
2019-02-16T07:16:59.979Z,44.5
2019-02-16T07:17:49.767Z,44.1
2019-02-16T07:18:39.279Z,43.8
2019-02-16T07:19:29.592Z,43.5
2019-02-16T07:20:19.428Z,43.1
2019-02-16T07:21:10.273Z,42.9
2019-02-16T07:21:59.197Z,42.6
2019-02-16T07:22:49.826Z,42.3
2019-02-16T07:23:40.212Z,42.1
2019-02-16T07:24:30.633Z,41.8
2019-02-16T07:25:20.074Z,41.6
2019-02-16T07:26:11.404Z,41.3
2019-02-16T07:27:00.498Z,41.1
2019-02-16T07:27:49.937Z,40.9
2019-02-16T07:28:40.516Z,40.7
2019-02-16T07:29:31.154Z,40.6
2019-02-16T07:30:20.713Z,40.3
2019-02-16T07:31:10.211Z,39.1
2019-02-16T07:32:01.109Z,38.1
2019-02-16T07:32:50.573Z,45.8
2019-02-16T07:33:40.903Z,49.6
2019-02-16T07:34:30.726Z,49.7
2019-02-16T07:35:21.025Z,47.5
2019-02-16T07:36:11.464Z,45.9
2019-02-16T07:37:00.483Z,45.1
2019-02-16T07:37:51.074Z,44.4
2019-02-16T07:38:41.815Z,43.9
2019-02-16T07:39:31.053Z,43.5
2019-02-16T07:40:20.818Z,43.1
2019-02-16T07:41:11.390Z,42.8
2019-02-16T07:42:02.934Z,42.4
2019-02-16T07:42:51.834Z,42.1
2019-02-16T07:43:41.013Z,41.8
2019-02-16T07:44:31.376Z,41.6
2019-02-16T07:45:21.746Z,41.3
2019-02-16T07:46:12.362Z,41.1
2019-02-16T07:47:01.783Z,40.9
2019-02-16T07:47:51.849Z,40.6
2019-02-16T07:48:41.886Z,40.4
2019-02-16T07:49:31.742Z,40.3
2019-02-16T07:50:21.193Z,40.1
2019-02-16T07:51:12.115Z,39.9
2019-02-16T07:52:02.128Z,39.8
2019-02-16T07:52:52.136Z,39.6
2019-02-16T07:53:41.898Z,39.4
2019-02-16T07:54:32.335Z,39.3
2019-02-16T07:55:24.768Z,39.2
2019-02-16T07:56:12.708Z,39
2019-02-16T07:57:02.170Z,38.9
2019-02-16T07:57:52.213Z,38.8
2019-02-16T07:58:42.245Z,38.7
2019-02-16T07:59:32.315Z,38.6
2019-02-16T08:00:22.368Z,38.5
2019-02-16T08:01:12.778Z,38.4
2019-02-16T08:02:02.535Z,38.3
2019-02-16T08:02:52.838Z,38.2
2019-02-16T08:03:43.178Z,38.1
2019-02-16T08:04:33.275Z,36.2
2019-02-16T08:05:23.329Z,41.1
2019-02-16T08:06:12.298Z,48.1
2019-02-16T08:07:03.204Z,51.6
2019-02-16T08:07:52.925Z,52.3
2019-02-16T08:08:42.695Z,50.5
2019-02-16T08:09:33.605Z,48.8
2019-02-16T08:10:23.071Z,48.8
2019-02-16T08:11:13.669Z,49.5
2019-02-16T08:12:03.719Z,50.6
2019-02-16T08:12:53.499Z,51.8
2019-02-16T08:13:43.280Z,52.9
2019-02-16T08:14:33.087Z,53.6
2019-02-16T08:15:23.660Z,53.8
2019-02-16T08:16:13.195Z,53.6
2019-02-16T08:17:03.562Z,53.4
2019-02-16T08:17:53.313Z,53.3
2019-02-16T08:18:44.200Z,53.5
2019-02-16T08:19:33.985Z,54
2019-02-16T08:20:24.111Z,54.6
2019-02-16T08:21:14.082Z,55
2019-02-16T08:22:03.644Z,55.4
2019-02-16T08:22:53.979Z,55.6
2019-02-16T08:23:45.994Z,55.8
2019-02-16T08:24:34.319Z,55.9
2019-02-16T08:25:23.597Z,56
2019-02-16T08:26:13.874Z,56.2
2019-02-16T08:27:04.205Z,56.4
2019-02-16T08:27:54.329Z,56.6
2019-02-16T08:28:44.609Z,56.8
2019-02-16T08:29:34.654Z,57
2019-02-16T08:30:24.234Z,57.2
2019-02-16T08:31:15.319Z,57.4
2019-02-16T08:32:04.561Z,57.6
2019-02-16T08:32:53.745Z,57.7
2019-02-16T08:33:44.696Z,57.8
2019-02-16T08:34:35.008Z,58
2019-02-16T08:35:25.069Z,58.1
2019-02-16T08:36:14.298Z,58.3
2019-02-16T08:37:05.443Z,58.4
2019-02-16T08:38:45.336Z,58.7
2019-02-16T08:39:35.375Z,58.8
2019-02-16T08:40:25.726Z,58.9
2019-02-16T08:41:15.230Z,59.1
2019-02-16T08:42:06.037Z,59.2
2019-02-16T08:42:56.165Z,59.3
2019-02-16T08:43:45.418Z,59.4
2019-02-16T08:44:35.408Z,59.5
2019-02-16T08:45:26.027Z,59.6
2019-02-16T08:46:16.077Z,59.8
2019-02-16T08:47:05.597Z,59.8
2019-02-16T08:47:55.942Z,59.9
2019-02-16T08:48:45.692Z,60
2019-02-16T08:49:35.172Z,60.1
2019-02-16T08:50:26.639Z,60.2
2019-02-16T08:51:15.392Z,60.4
2019-02-16T08:52:05.715Z,60.4
2019-02-16T08:52:55.696Z,60.6
2019-02-16T08:53:56.045Z,60.7
2019-02-16T08:54:36.114Z,60.8
2019-02-16T08:55:26.989Z,60.9
2019-02-16T08:56:16.827Z,60.9
2019-02-16T08:57:06.605Z,61.1
2019-02-16T08:57:57.172Z,61.2
2019-02-16T08:58:46.649Z,61.3
2019-02-16T08:59:36.487Z,61.4
2019-02-16T09:00:26.764Z,61.5
2019-02-16T09:01:16.354Z,61.6
2019-02-16T09:02:06.139Z,61.6
2019-02-16T09:02:56.954Z,61.7
2019-02-16T09:03:47.011Z,61.8
2019-02-16T09:04:37.130Z,61.9
2019-02-16T09:05:26.561Z,61.9
2019-02-16T09:06:17.446Z,62.1
2019-02-16T09:07:06.031Z,62.1
2019-02-16T09:07:57.882Z,62.3
2019-02-16T09:08:47.674Z,62.4
2019-02-16T09:09:37.456Z,62.4
2019-02-16T09:10:27.756Z,62.6
2019-02-16T09:11:17.798Z,62.7
2019-02-16T09:12:09.551Z,62.8
2019-02-16T09:12:57.910Z,62.9
2019-02-16T09:13:47.971Z,62.9
2019-02-16T09:14:37.563Z,63.1
2019-02-16T09:15:27.820Z,63.1
2019-02-16T09:16:17.665Z,63.1
2019-02-16T09:17:08.269Z,63.3
2019-02-16T09:17:57.973Z,63.4
2019-02-16T09:18:48.606Z,63.5
2019-02-16T09:19:37.301Z,63.6
2019-02-16T09:20:28.493Z,63.6
2019-02-16T09:21:20.817Z,63.7
2019-02-16T09:22:08.278Z,63.8
2019-02-16T09:22:58.406Z,63.8
2019-02-16T09:23:47.850Z,63.9
2019-02-16T09:24:39.222Z,63.9
2019-02-16T09:25:27.787Z,63.9
2019-02-16T09:26:18.340Z,63.9
2019-02-16T09:27:10.563Z,63.9
2019-02-16T09:27:59.245Z,64.1
2019-02-16T09:28:49.077Z,64.1
2019-02-16T09:29:38.064Z,64.2
2019-02-16T09:30:28.807Z,64.3
2019-02-16T09:31:19.220Z,64.4
2019-02-16T09:32:08.690Z,64.5
2019-02-16T09:32:59.037Z,64.6
2019-02-16T09:33:49.082Z,64.7
2019-02-16T09:34:39.393Z,64.8
2019-02-16T09:35:28.897Z,64.9
2019-02-16T09:36:18.981Z,65
2019-02-16T09:37:09.364Z,65.1
2019-02-16T09:37:59.632Z,65.2
2019-02-16T09:38:48.951Z,65.3
2019-02-16T09:39:40.054Z,65.4
2019-02-16T09:40:29.224Z,65.4
2019-02-16T09:41:19.304Z,65.6
2019-02-16T09:42:09.661Z,65.6
2019-02-16T09:42:59.129Z,65.8
2019-02-16T09:43:50.046Z,65.9
2019-02-16T09:44:39.534Z,66
2019-02-16T09:45:29.351Z,66.1
2019-02-16T09:46:20.512Z,66.1
2019-02-16T09:47:10.068Z,66.1
2019-02-16T09:47:59.744Z,66.2
2019-02-16T09:48:49.813Z,66.3
2019-02-16T09:49:40.643Z,66.3
2019-02-16T09:50:32.989Z,66.3
2019-02-16T09:51:19.993Z,66.4
2019-02-16T09:52:10.360Z,66.4
2019-02-16T09:53:00.377Z,66.4
2019-02-16T09:53:50.718Z,66.5
2019-02-16T09:54:40.781Z,66.6
2019-02-16T09:55:29.513Z,66.6
2019-02-16T09:56:20.656Z,66.8
2019-02-16T09:57:10.123Z,66.9
2019-02-16T09:58:00.741Z,67
2019-02-16T09:58:49.660Z,67.1
2019-02-16T09:59:40.871Z,67.2
2019-02-16T10:00:30.963Z,67.3
2019-02-16T10:01:20.671Z,67.4
2019-02-16T10:02:11.015Z,67.4
2019-02-16T10:03:00.223Z,67.5
2019-02-16T10:03:50.843Z,67.5
2019-02-16T10:04:41.195Z,67.6
2019-02-16T10:07:08.870Z,67.6
2019-02-16T10:07:58.828Z,67.6
2019-02-16T10:08:49.237Z,67.6
2019-02-16T10:09:38.955Z,67.7
2019-02-16T10:10:28.790Z,67.7
2019-02-16T10:11:19.378Z,67.8
2019-02-16T10:12:09.441Z,67.8
2019-02-16T10:13:01.243Z,67.9
2019-02-16T10:13:49.029Z,67.9
2019-02-16T10:14:38.757Z,68
2019-02-16T10:15:29.397Z,68.1
2019-02-16T10:16:20.032Z,68.1
2019-02-16T10:17:11.960Z,68.2
2019-02-16T10:17:58.984Z,68.3
2019-02-16T10:18:50.147Z,68.3
2019-02-16T10:19:39.077Z,68.4
2019-02-16T10:20:29.684Z,68.4
2019-02-16T10:21:20.080Z,68.5
2019-02-16T10:22:09.589Z,68.6
2019-02-16T10:22:59.914Z,68.6
2019-02-16T10:23:49.934Z,68.8
2019-02-16T10:24:39.434Z,68.8
2019-02-16T10:25:30.056Z,68.9
2019-02-16T10:26:19.541Z,69
2019-02-16T10:27:09.891Z,69.1
2019-02-16T10:28:00.512Z,69.2
2019-02-16T10:28:50.837Z,69.2
2019-02-16T10:29:39.761Z,69.1
2019-02-16T10:30:30.189Z,69.1
2019-02-16T10:31:20.703Z,69.1
2019-02-16T10:32:11.186Z,69.1
2019-02-16T10:33:00.644Z,69.1
2019-02-16T10:33:50.666Z,69.2
2019-02-16T10:34:40.685Z,69.2
2019-02-16T10:35:30.746Z,69.3
2019-02-16T10:36:20.826Z,69.3
2019-02-16T10:37:10.288Z,69.3
2019-02-16T10:38:01.476Z,69.3
2019-02-16T10:38:51.244Z,69.4
2019-02-16T10:39:41.283Z,69.4
2019-02-16T10:40:30.526Z,69.5
2019-02-16T10:41:20.570Z,69.6
2019-02-16T10:42:10.655Z,69.7
2019-02-16T10:43:01.006Z,69.8
2019-02-16T10:43:51.384Z,69.8
2019-02-16T10:44:41.638Z,69.9
2019-02-16T10:45:31.150Z,70
2019-02-16T10:46:21.201Z,70.1
2019-02-16T10:47:11.290Z,70.1
2019-02-16T10:48:01.863Z,70.2
2019-02-16T10:48:51.963Z,70.3
2019-02-16T10:49:41.749Z,70.4
2019-02-16T10:50:31.776Z,70.5
2019-02-16T10:51:21.548Z,70.6
2019-02-16T10:52:12.175Z,70.6
2019-02-16T10:53:01.535Z,70.7
2019-02-16T10:53:51.724Z,70.8
2019-02-16T10:54:42.344Z,70.8
2019-02-16T10:55:31.846Z,70.9
2019-02-16T10:56:22.179Z,70.9
2019-02-16T10:57:12.823Z,70.9
2019-02-16T10:58:02.616Z,71
2019-02-16T10:58:52.369Z,71
2019-02-16T10:59:43.170Z,71.1
2019-02-16T11:00:31.627Z,71.1
2019-02-16T11:01:21.444Z,71.1
2019-02-16T11:02:14.603Z,71.1
2019-02-16T11:03:03.200Z,71.1
2019-02-16T11:03:51.917Z,71.2
2019-02-16T11:04:44.017Z,71.3
2019-02-16T11:05:32.936Z,71.2
2019-02-16T11:06:22.584Z,71.3
2019-02-16T11:07:12.917Z,71.3
2019-02-16T11:08:03.597Z,71.3
2019-02-16T11:08:52.249Z,71.4
2019-02-16T11:09:42.911Z,71.4
2019-02-16T11:10:32.900Z,71.4
2019-02-16T11:11:23.301Z,71.4
2019-02-16T11:12:13.252Z,71.4
2019-02-16T11:13:03.054Z,71.3
2019-02-16T11:13:52.521Z,71.3
2019-02-16T11:14:42.921Z,71.4
2019-02-16T11:15:34.879Z,71.4
2019-02-16T11:16:23.826Z,71.4
2019-02-16T11:17:13.610Z,71.4
2019-02-16T11:18:03.406Z,71.5
2019-02-16T11:18:53.451Z,71.6